This is the latest recevied weather packets stored in our database for station/object KJ4W. If no packets are shown the sender has not sent any weather packets the latest 10 day(s).
| Time | Temp. | Humidity | Pressure | Rain* | Wind** | Luminosity | Snow |
|---|---|---|---|---|---|---|---|
| 1788485189 | 27.78° C | 80% | 1013.9 hPa | 0 mm | - | - | - |
| 1788484289 | 28.33° C | 78% | 1013.8 hPa | 0 mm | - | - | - |
| 1788475289 | 34.44° C | 54% | 1013 hPa | 0 mm | - | - | - |
| 1788473488 | 35° C | 56% | 1013 hPa | 0 mm | - | - | - |
| 1788470788 | 35.56° C | 53% | 1013.2 hPa | 0 mm | - | - | - |
| 1788469889 | 35.56° C | 53% | 1013.3 hPa | 0 mm | - | - | - |
| 1788467188 | 35.56° C | 58% | 1013.7 hPa | 0 mm | - | - | - |
| 1788466287 | 35.56° C | 56% | 1014 hPa | 0 mm | - | - | - |
| 1788465389 | 35.56° C | 57% | 1014.2 hPa | 0 mm | - | - | - |
| 1788463589 | 36.11° C | 54% | 1014.5 hPa | 0 mm | - | - | - |
| 1788448288 | 31.67° C | 68% | 1016.4 hPa | 0 mm | - | - | - |
| 1788441987 | 26.67° C | 87% | 1016.6 hPa | 0 mm | - | - | - |
| 1788432990 | 23.33° C | 95% | 1016 hPa | 0 mm | - | - | - |
| 1788431187 | 23.33° C | 94% | 1015.8 hPa | 0 mm | - | - | - |
| 1788430286 | 23.33° C | 94% | 1015.8 hPa | 0 mm | - | - | - |
| 1788429387 | 23.33° C | 94% | 1015.7 hPa | 0 mm | - | - | - |
| 1788428487 | 23.89° C | 93% | 1015.7 hPa | 0 mm | - | - | - |
| 1788427586 | 23.89° C | 93% | 1015.7 hPa | 0 mm | - | - | - |
| 1788426686 | 23.89° C | 93% | 1015.7 hPa | 0 mm | - | - | - |
| 1788423986 | 23.89° C | 92% | 1015.5 hPa | 0 mm | - | - | - |
| 1788423087 | 24.44° C | 92% | 1015.4 hPa | 0 mm | - | - | - |
| 1788422186 | 24.44° C | 91% | 1015.3 hPa | 0 mm | - | - | - |
| 1788421286 | 24.44° C | 91% | 1015.3 hPa | 0 mm | - | - | - |
| 1788420387 | 24.44° C | 92% | 1015.2 hPa | 0 mm | - | - | - |
| 1788419487 | 24.44° C | 92% | 1015.3 hPa | 0 mm | - | - | - |
* Rain latest hour (hover to see other rain measurements)
** Current wind speed in m/s (hover to see current wind gust speed)